sensor_id;sensor_type;location;lat;lon;timestamp;pressure;altitude;pressure_sealevel;temperature;humidity
82807;BME280;72563;44.816;20.484;2024-03-23T00:55:50;100419.50;;;13.74;49.20
82807;BME280;72563;44.816;20.484;2024-03-23T00:58:16;100422.31;;;13.66;49.22
82807;BME280;72563;44.816;20.484;2024-03-23T01:00:43;100410.38;;;13.53;49.72
82807;BME280;72563;44.816;20.484;2024-03-23T01:03:09;100404.50;;;13.55;49.85
82807;BME280;72563;44.816;20.484;2024-03-23T01:05:35;100407.91;;;13.31;50.61
82807;BME280;72563;44.816;20.484;2024-03-23T01:08:01;100405.28;;;13.35;50.74
82807;BME280;72563;44.816;20.484;2024-03-23T01:10:27;100388.75;;;13.26;50.56
82807;BME280;72563;44.816;20.484;2024-03-23T01:12:53;100372.22;;;13.17;50.91
82807;BME280;72563;44.816;20.484;2024-03-23T01:15:18;100376.56;;;13.27;50.83
82807;BME280;72563;44.816;20.484;2024-03-23T01:17:44;100360.75;;;13.07;50.90
82807;BME280;72563;44.816;20.484;2024-03-23T01:20:10;100388.78;;;13.17;51.22
82807;BME280;72563;44.816;20.484;2024-03-23T01:22:35;100387.19;;;13.16;51.17
82807;BME280;72563;44.816;20.484;2024-03-23T01:25:01;100388.28;;;13.24;51.29
82807;BME280;72563;44.816;20.484;2024-03-23T01:27:27;100394.09;;;13.31;51.37
82807;BME280;72563;44.816;20.484;2024-03-23T01:29:53;100391.38;;;13.22;51.53
82807;BME280;72563;44.816;20.484;2024-03-23T01:32:18;100386.09;;;13.09;51.69
82807;BME280;72563;44.816;20.484;2024-03-23T01:34:44;100384.28;;;13.13;51.85
82807;BME280;72563;44.816;20.484;2024-03-23T01:37:10;100383.50;;;13.04;52.40
82807;BME280;72563;44.816;20.484;2024-03-23T01:39:36;100383.09;;;13.22;51.87
82807;BME280;72563;44.816;20.484;2024-03-23T01:42:03;100389.94;;;13.16;52.19
82807;BME280;72563;44.816;20.484;2024-03-23T01:44:29;100365.59;;;13.10;52.06
82807;BME280;72563;44.816;20.484;2024-03-23T01:46:55;100376.88;;;13.25;51.94
82807;BME280;72563;44.816;20.484;2024-03-23T01:49:20;100376.66;;;13.10;52.68
82807;BME280;72563;44.816;20.484;2024-03-23T01:51:50;100385.75;;;13.10;52.69
82807;BME280;72563;44.816;20.484;2024-03-23T01:54:15;100368.56;;;13.05;52.97
82807;BME280;72563;44.816;20.484;2024-03-23T01:56:41;100374.31;;;13.20;52.76
82807;BME280;72563;44.816;20.484;2024-03-23T01:59:08;100371.81;;;13.27;52.39
82807;BME280;72563;44.816;20.484;2024-03-23T02:01:37;100360.50;;;13.20;52.38
82807;BME280;72563;44.816;20.484;2024-03-23T02:04:02;100356.22;;;12.94;53.08
82807;BME280;72563;44.816;20.484;2024-03-23T02:06:28;100363.88;;;12.97;53.16
82807;BME280;72563;44.816;20.484;2024-03-23T02:08:57;100353.34;;;12.90;52.95
82807;BME280;72563;44.816;20.484;2024-03-23T02:11:24;100363.88;;;12.97;53.56
82807;BME280;72563;44.816;20.484;2024-03-23T02:13:51;100336.13;;;12.85;53.26
82807;BME280;72563;44.816;20.484;2024-03-23T02:16:18;100361.28;;;12.92;53.47
82807;BME280;72563;44.816;20.484;2024-03-23T02:18:45;100361.81;;;12.85;53.68
82807;BME280;72563;44.816;20.484;2024-03-23T02:21:12;100358.91;;;12.82;53.92
82807;BME280;72563;44.816;20.484;2024-03-23T02:23:43;100343.16;;;12.82;53.90
82807;BME280;72563;44.816;20.484;2024-03-23T02:26:08;100323.88;;;12.65;53.90
82807;BME280;72563;44.816;20.484;2024-03-23T02:28:34;100352.75;;;12.76;54.36
82807;BME280;72563;44.816;20.484;2024-03-23T02:31:00;100336.72;;;12.70;54.25
82807;BME280;72563;44.816;20.484;2024-03-23T02:33:26;100345.81;;;12.70;54.63
82807;BME280;72563;44.816;20.484;2024-03-23T02:35:55;100347.66;;;12.58;55.05
82807;BME280;72563;44.816;20.484;2024-03-23T02:38:21;100334.84;;;12.44;55.17
82807;BME280;72563;44.816;20.484;2024-03-23T02:40:47;100345.63;;;12.29;56.29
82807;BME280;72563;44.816;20.484;2024-03-23T02:43:14;100345.50;;;12.25;56.74
82807;BME280;72563;44.816;20.484;2024-03-23T02:45:40;100338.06;;;12.17;57.23
82807;BME280;72563;44.816;20.484;2024-03-23T02:48:06;100341.47;;;11.97;57.92
82807;BME280;72563;44.816;20.484;2024-03-23T02:50:33;100333.72;;;11.82;58.92
82807;BME280;72563;44.816;20.484;2024-03-23T02:52:59;100327.59;;;11.77;58.62
82807;BME280;72563;44.816;20.484;2024-03-23T02:55:25;100325.47;;;11.82;58.95
82807;BME280;72563;44.816;20.484;2024-03-23T02:57:51;100321.06;;;11.81;58.80
82807;BME280;72563;44.816;20.484;2024-03-23T03:00:17;100327.53;;;12.02;58.46
82807;BME280;72563;44.816;20.484;2024-03-23T03:02:43;100319.03;;;12.24;57.18
82807;BME280;72563;44.816;20.484;2024-03-23T03:05:08;100315.72;;;12.39;56.80
82807;BME280;72563;44.816;20.484;2024-03-23T03:07:34;100309.91;;;12.32;56.45
82807;BME280;72563;44.816;20.484;2024-03-23T03:10:00;100309.50;;;12.05;57.45
82807;BME280;72563;44.816;20.484;2024-03-23T03:12:25;100314.19;;;12.21;57.21
82807;BME280;72563;44.816;20.484;2024-03-23T03:14:51;100311.72;;;12.20;57.97
82807;BME280;72563;44.816;20.484;2024-03-23T03:17:17;100289.25;;;11.92;59.66
82807;BME280;72563;44.816;20.484;2024-03-23T03:19:43;100308.09;;;11.90;60.43
82807;BME280;72563;44.816;20.484;2024-03-23T03:22:08;100304.50;;;11.98;60.38
82807;BME280;72563;44.816;20.484;2024-03-23T03:24:34;100301.28;;;11.79;61.12
82807;BME280;72563;44.816;20.484;2024-03-23T03:26:59;100304.88;;;11.54;62.85
82807;BME280;72563;44.816;20.484;2024-03-23T03:29:25;100308.09;;;11.56;62.50
82807;BME280;72563;44.816;20.484;2024-03-23T03:31:51;100304.06;;;11.45;63.25
82807;BME280;72563;44.816;20.484;2024-03-23T03:34:17;100299.66;;;11.52;62.91
82807;BME280;72563;44.816;20.484;2024-03-23T03:36:42;100295.63;;;11.41;63.27
82807;BME280;72563;44.816;20.484;2024-03-23T03:39:09;100300.81;;;11.43;63.12
82807;BME280;72563;44.816;20.484;2024-03-23T03:41:35;100291.75;;;11.25;63.38
82807;BME280;72563;44.816;20.484;2024-03-23T03:44:01;100278.13;;;11.29;63.30
82807;BME280;72563;44.816;20.484;2024-03-23T03:46:28;100292.22;;;11.19;63.80
82807;BME280;72563;44.816;20.484;2024-03-23T03:48:54;100289.94;;;10.95;64.81
82807;BME280;72563;44.816;20.484;2024-03-23T03:51:20;100283.78;;;10.98;64.86
82807;BME280;72563;44.816;20.484;2024-03-23T03:53:46;100276.97;;;11.04;64.62
82807;BME280;72563;44.816;20.484;2024-03-23T03:56:12;100261.25;;;10.88;64.95
82807;BME280;72563;44.816;20.484;2024-03-23T03:58:37;100270.34;;;10.97;64.88
82807;BME280;72563;44.816;20.484;2024-03-23T04:01:04;100281.66;;;11.04;64.90
82807;BME280;72563;44.816;20.484;2024-03-23T04:03:29;100281.03;;;11.15;63.92
82807;BME280;72563;44.816;20.484;2024-03-23T04:05:55;100277.13;;;11.16;64.10
82807;BME280;72563;44.816;20.484;2024-03-23T04:08:21;100252.03;;;10.92;64.08
82807;BME280;72563;44.816;20.484;2024-03-23T04:10:47;100278.28;;;11.07;64.29
82807;BME280;72563;44.816;20.484;2024-03-23T04:13:13;100277.13;;;11.08;64.42
82807;BME280;72563;44.816;20.484;2024-03-23T04:15:39;100287.50;;;11.11;64.63
82807;BME280;72563;44.816;20.484;2024-03-23T04:18:05;100293.34;;;11.09;65.17
82807;BME280;72563;44.816;20.484;2024-03-23T04:20:30;100281.38;;;11.05;65.14
82807;BME280;72563;44.816;20.484;2024-03-23T04:23:01;100264.75;;;10.54;66.88
82807;BME280;72563;44.816;20.484;2024-03-23T04:25:27;100261.63;;;10.47;67.23
82807;BME280;72563;44.816;20.484;2024-03-23T04:27:53;100287.13;;;10.69;67.18
82807;BME280;72563;44.816;20.484;2024-03-23T04:30:19;100291.88;;;10.95;66.26
82807;BME280;72563;44.816;20.484;2024-03-23T04:32:47;100303.03;;;10.90;66.14
82807;BME280;72563;44.816;20.484;2024-03-23T04:35:15;100290.41;;;10.89;66.68
82807;BME280;72563;44.816;20.484;2024-03-23T04:37:40;100289.75;;;10.74;67.34
82807;BME280;72563;44.816;20.484;2024-03-23T04:40:06;100293.97;;;10.89;66.66
82807;BME280;72563;44.816;20.484;2024-03-23T04:42:33;100288.09;;;10.73;66.90
82807;BME280;72563;44.816;20.484;2024-03-23T04:45:00;100273.69;;;10.68;67.16
82807;BME280;72563;44.816;20.484;2024-03-23T04:47:26;100262.50;;;10.56;67.56
82807;BME280;72563;44.816;20.484;2024-03-23T04:49:52;100268.94;;;10.51;67.35
82807;BME280;72563;44.816;20.484;2024-03-23T04:52:18;100282.03;;;10.46;68.12
82807;BME280;72563;44.816;20.484;2024-03-23T04:54:44;100275.84;;;10.32;68.75
82807;BME280;72563;44.816;20.484;2024-03-23T04:57:11;100279.47;;;10.49;68.04
82807;BME280;72563;44.816;20.484;2024-03-23T04:59:37;100275.25;;;10.52;68.27
82807;BME280;72563;44.816;20.484;2024-03-23T05:02:03;100276.09;;;10.61;68.00
82807;BME280;72563;44.816;20.484;2024-03-23T05:04:28;100280.78;;;10.52;68.51
82807;BME280;72563;44.816;20.484;2024-03-23T05:06:54;100256.16;;;10.55;67.92
82807;BME280;72563;44.816;20.484;2024-03-23T05:09:20;100271.25;;;10.66;67.90
82807;BME280;72563;44.816;20.484;2024-03-23T05:11:46;100271.13;;;10.80;66.95
82807;BME280;72563;44.816;20.484;2024-03-23T05:14:13;100275.94;;;10.66;67.96
82807;BME280;72563;44.816;20.484;2024-03-23T05:16:39;100275.16;;;10.74;67.86
82807;BME280;72563;44.816;20.484;2024-03-23T05:19:08;100259.59;;;10.69;67.67
82807;BME280;72563;44.816;20.484;2024-03-23T05:21:34;100270.00;;;10.90;67.23
82807;BME280;72563;44.816;20.484;2024-03-23T05:24:00;100259.97;;;11.02;66.19
82807;BME280;72563;44.816;20.484;2024-03-23T05:26:26;100267.91;;;11.21;65.99
82807;BME280;72563;44.816;20.484;2024-03-23T05:28:51;100269.84;;;11.29;65.67
82807;BME280;72563;44.816;20.484;2024-03-23T05:31:27;100263.22;;;11.30;65.42
82807;BME280;72563;44.816;20.484;2024-03-23T05:33:53;100259.31;;;11.22;65.55
82807;BME280;72563;44.816;20.484;2024-03-23T05:36:20;100253.66;;;11.10;65.81
82807;BME280;72563;44.816;20.484;2024-03-23T05:38:45;100262.56;;;11.07;66.06
82807;BME280;72563;44.816;20.484;2024-03-23T05:41:11;100270.81;;;11.24;65.89
82807;BME280;72563;44.816;20.484;2024-03-23T05:43:37;100262.38;;;11.81;63.96
82807;BME280;72563;44.816;20.484;2024-03-23T05:46:05;100249.88;;;13.08;59.27
82807;BME280;72563;44.816;20.484;2024-03-23T05:48:31;100232.22;;;14.11;55.71
82807;BME280;72563;44.816;20.484;2024-03-23T05:50:57;100260.09;;;14.51;54.45
82807;BME280;72563;44.816;20.484;2024-03-23T05:53:23;100256.38;;;14.71;53.80
82807;BME280;72563;44.816;20.484;2024-03-23T05:55:50;100247.72;;;15.64;51.29
82807;BME280;72563;44.816;20.484;2024-03-23T05:58:16;100233.44;;;15.77;50.42
82807;BME280;72563;44.816;20.484;2024-03-23T06:00:43;100232.56;;;16.05;49.79
82807;BME280;72563;44.816;20.484;2024-03-23T06:03:09;100245.56;;;16.16;49.45
82807;BME280;72563;44.816;20.484;2024-03-23T06:05:35;100247.97;;;16.02;50.20
82807;BME280;72563;44.816;20.484;2024-03-23T06:08:01;100229.34;;;16.03;49.77
82807;BME280;72563;44.816;20.484;2024-03-23T06:10:27;100230.59;;;16.05;49.89
82807;BME280;72563;44.816;20.484;2024-03-23T06:12:53;100215.66;;;16.10;49.13
82807;BME280;72563;44.816;20.484;2024-03-23T06:15:19;100236.50;;;16.19;50.05
82807;BME280;72563;44.816;20.484;2024-03-23T06:17:45;100229.97;;;16.27;49.66
82807;BME280;72563;44.816;20.484;2024-03-23T06:20:10;100246.47;;;17.02;47.80
82807;BME280;72563;44.816;20.484;2024-03-23T06:22:37;100245.16;;;17.15;47.22
82807;BME280;72563;44.816;20.484;2024-03-23T06:25:02;100238.00;;;17.14;47.11
82807;BME280;72563;44.816;20.484;2024-03-23T06:27:28;100249.38;;;17.63;46.33
82807;BME280;72563;44.816;20.484;2024-03-23T06:29:54;100238.34;;;17.89;45.31
82807;BME280;72563;44.816;20.484;2024-03-23T06:32:20;100233.09;;;18.29;44.30
82807;BME280;72563;44.816;20.484;2024-03-23T06:34:46;100235.75;;;18.45;43.35
82807;BME280;72563;44.816;20.484;2024-03-23T06:37:12;100225.53;;;18.78;42.99
82807;BME280;72563;44.816;20.484;2024-03-23T06:39:38;100233.34;;;19.22;42.19
82807;BME280;72563;44.816;20.484;2024-03-23T06:42:04;100239.75;;;19.55;41.22
82807;BME280;72563;44.816;20.484;2024-03-23T06:44:31;100234.50;;;19.83;41.15
82807;BME280;72563;44.816;20.484;2024-03-23T06:46:57;100238.75;;;20.07;40.12
82807;BME280;72563;44.816;20.484;2024-03-23T06:49:23;100226.75;;;20.47;39.38
82807;BME280;72563;44.816;20.484;2024-03-23T06:51:49;100214.94;;;20.71;38.47
82807;BME280;72563;44.816;20.484;2024-03-23T06:54:16;100223.06;;;20.94;37.68
82807;BME280;72563;44.816;20.484;2024-03-23T06:56:42;100214.03;;;21.18;37.23
82807;BME280;72563;44.816;20.484;2024-03-23T06:59:07;100226.84;;;21.22;37.66
82807;BME280;72563;44.816;20.484;2024-03-23T07:01:34;100220.91;;;21.34;37.13
82807;BME280;72563;44.816;20.484;2024-03-23T07:04:00;100231.03;;;21.71;36.12
82807;BME280;72563;44.816;20.484;2024-03-23T07:06:26;100232.22;;;21.63;36.38
82807;BME280;72563;44.816;20.484;2024-03-23T07:08:52;100226.75;;;21.94;35.48
82807;BME280;72563;44.816;20.484;2024-03-23T07:11:21;100205.94;;;22.31;34.44
82807;BME280;72563;44.816;20.484;2024-03-23T07:13:50;100208.75;;;22.06;34.52
82807;BME280;72563;44.816;20.484;2024-03-23T07:16:16;100211.16;;;22.39;33.77
82807;BME280;72563;44.816;20.484;2024-03-23T07:18:43;100210.31;;;23.02;33.18
82807;BME280;72563;44.816;20.484;2024-03-23T07:21:09;100208.59;;;23.43;31.34
82807;BME280;72563;44.816;20.484;2024-03-23T07:23:34;100195.72;;;23.46;31.94
82807;BME280;72563;44.816;20.484;2024-03-23T07:26:02;100207.69;;;23.64;31.55
82807;BME280;72563;44.816;20.484;2024-03-23T07:28:28;100206.72;;;23.92;31.18
82807;BME280;72563;44.816;20.484;2024-03-23T07:31:15;100198.47;;;24.69;29.36
82807;BME280;72563;44.816;20.484;2024-03-23T07:33:48;100202.38;;;24.83;29.30
82807;BME280;72563;44.816;20.484;2024-03-23T07:36:14;100201.66;;;24.72;29.70
82807;BME280;72563;44.816;20.484;2024-03-23T07:38:41;100205.72;;;24.19;30.19
82807;BME280;72563;44.816;20.484;2024-03-23T07:41:11;100194.75;;;24.83;28.73
82807;BME280;72563;44.816;20.484;2024-03-23T07:43:38;100187.97;;;24.77;28.63
82807;BME280;72563;44.816;20.484;2024-03-23T07:46:06;100170.69;;;22.51;31.17
82807;BME280;72563;44.816;20.484;2024-03-23T07:48:32;100179.91;;;24.79;28.66
82807;BME280;72563;44.816;20.484;2024-03-23T07:53:25;100176.44;;;25.02;27.46
82807;BME280;72563;44.816;20.484;2024-03-23T07:55:56;100177.38;;;24.44;28.46
82807;BME280;72563;44.816;20.484;2024-03-23T07:58:22;100177.06;;;25.16;27.30
82807;BME280;72563;44.816;20.484;2024-03-23T08:00:47;100159.31;;;25.53;25.93
82807;BME280;72563;44.816;20.484;2024-03-23T08:03:13;100142.97;;;25.94;25.65
82807;BME280;72563;44.816;20.484;2024-03-23T08:05:39;100162.63;;;26.94;24.77
82807;BME280;72563;44.816;20.484;2024-03-23T08:08:06;100171.94;;;27.14;23.64
82807;BME280;72563;44.816;20.484;2024-03-23T08:10:32;100152.53;;;26.27;24.12
82807;BME280;72563;44.816;20.484;2024-03-23T08:12:58;100164.50;;;26.81;23.45
82807;BME280;72563;44.816;20.484;2024-03-23T08:15:23;100154.47;;;26.99;21.45
82807;BME280;72563;44.816;20.484;2024-03-23T08:17:50;100165.53;;;27.30;21.06
82807;BME280;72563;44.816;20.484;2024-03-23T08:20:15;100139.09;;;27.40;20.59
82807;BME280;72563;44.816;20.484;2024-03-23T08:22:41;100151.81;;;28.03;20.47
82807;BME280;72563;44.816;20.484;2024-03-23T08:25:07;100163.13;;;28.03;19.53
82807;BME280;72563;44.816;20.484;2024-03-23T08:27:33;100165.97;;;27.83;20.65
82807;BME280;72563;44.816;20.484;2024-03-23T08:29:58;100163.69;;;27.95;19.78
82807;BME280;72563;44.816;20.484;2024-03-23T08:32:24;100159.06;;;28.36;19.69
82807;BME280;72563;44.816;20.484;2024-03-23T08:34:50;100151.97;;;28.44;18.89
82807;BME280;72563;44.816;20.484;2024-03-23T08:37:15;100138.34;;;28.07;21.07
82807;BME280;72563;44.816;20.484;2024-03-23T08:39:43;100157.34;;;28.39;20.68
82807;BME280;72563;44.816;20.484;2024-03-23T08:42:09;100153.63;;;27.94;20.51
82807;BME280;72563;44.816;20.484;2024-03-23T08:44:34;100149.09;;;27.80;21.22
82807;BME280;72563;44.816;20.484;2024-03-23T08:47:01;100123.38;;;27.90;20.80
82807;BME280;72563;44.816;20.484;2024-03-23T08:49:27;100132.84;;;28.64;20.08
82807;BME280;72563;44.816;20.484;2024-03-23T08:51:53;100137.19;;;28.05;20.54
82807;BME280;72563;44.816;20.484;2024-03-23T08:54:20;100137.28;;;28.33;20.63
82807;BME280;72563;44.816;20.484;2024-03-23T08:56:47;100128.31;;;28.51;19.14
82807;BME280;72563;44.816;20.484;2024-03-23T08:59:13;100111.94;;;28.75;18.44
82807;BME280;72563;44.816;20.484;2024-03-23T09:01:39;100115.94;;;28.61;18.89
82807;BME280;72563;44.816;20.484;2024-03-23T09:04:04;100115.22;;;28.41;18.97
82807;BME280;72563;44.816;20.484;2024-03-23T09:06:30;100106.78;;;28.98;18.47
82807;BME280;72563;44.816;20.484;2024-03-23T09:08:56;100114.97;;;29.09;18.34
82807;BME280;72563;44.816;20.484;2024-03-23T09:11:22;100107.53;;;28.86;18.60
82807;BME280;72563;44.816;20.484;2024-03-23T09:13:47;100110.72;;;28.59;18.54
82807;BME280;72563;44.816;20.484;2024-03-23T09:16:13;100100.72;;;28.84;18.37
82807;BME280;72563;44.816;20.484;2024-03-23T09:18:39;100096.44;;;29.20;18.22
82807;BME280;72563;44.816;20.484;2024-03-23T09:21:14;100085.94;;;27.51;19.74
82807;BME280;72563;44.816;20.484;2024-03-23T09:23:43;100088.59;;;28.54;19.42
82807;BME280;72563;44.816;20.484;2024-03-23T09:26:09;100080.44;;;28.12;19.91
82807;BME280;72563;44.816;20.484;2024-03-23T09:28:35;100083.69;;;27.23;21.09
82807;BME280;72563;44.816;20.484;2024-03-23T09:31:04;100074.25;;;29.03;18.94
82807;BME280;72563;44.816;20.484;2024-03-23T09:33:31;100067.72;;;28.32;19.42
82807;BME280;72563;44.816;20.484;2024-03-23T09:35:57;100065.84;;;28.58;19.61
82807;BME280;72563;44.816;20.484;2024-03-23T09:38:23;100066.69;;;28.55;19.50
82807;BME280;72563;44.816;20.484;2024-03-23T09:40:53;100062.88;;;28.90;19.41
82807;BME280;72563;44.816;20.484;2024-03-23T09:43:19;100050.59;;;28.68;19.48
82807;BME280;72563;44.816;20.484;2024-03-23T09:45:46;100044.81;;;28.72;19.31
82807;BME280;72563;44.816;20.484;2024-03-23T09:48:12;100035.72;;;29.05;18.89
82807;BME280;72563;44.816;20.484;2024-03-23T09:50:39;100021.94;;;29.45;19.04
82807;BME280;72563;44.816;20.484;2024-03-23T09:53:12;100037.72;;;29.33;18.85
82807;BME280;72563;44.816;20.484;2024-03-23T09:55:43;100039.91;;;28.59;21.06
82807;BME280;72563;44.816;20.484;2024-03-23T09:58:13;100028.13;;;28.61;21.19
82807;BME280;72563;44.816;20.484;2024-03-23T10:00:39;100031.28;;;28.63;20.77
82807;BME280;72563;44.816;20.484;2024-03-23T10:03:05;100022.78;;;28.34;20.33
82807;BME280;72563;44.816;20.484;2024-03-23T10:05:32;100026.28;;;27.94;21.73
82807;BME280;72563;44.816;20.484;2024-03-23T10:10:39;100017.94;;;28.19;20.51
82807;BME280;72563;44.816;20.484;2024-03-23T10:13:05;99988.53;;;27.84;20.54
82807;BME280;72563;44.816;20.484;2024-03-23T10:15:34;100005.06;;;28.18;20.50
82807;BME280;72563;44.816;20.484;2024-03-23T10:18:18;99997.78;;;28.17;21.06
82807;BME280;72563;44.816;20.484;2024-03-23T10:20:50;100004.94;;;28.50;20.27
82807;BME280;72563;44.816;20.484;2024-03-23T10:23:16;100004.16;;;28.21;20.82
82807;BME280;72563;44.816;20.484;2024-03-23T10:25:42;99989.50;;;27.94;19.98
82807;BME280;72563;44.816;20.484;2024-03-23T10:28:08;99984.03;;;27.86;20.08
82807;BME280;72563;44.816;20.484;2024-03-23T10:30:35;99980.09;;;28.13;21.57
82807;BME280;72563;44.816;20.484;2024-03-23T10:33:10;99988.19;;;27.82;21.63
82807;BME280;72563;44.816;20.484;2024-03-23T10:35:37;99968.75;;;27.52;20.92
82807;BME280;72563;44.816;20.484;2024-03-23T10:38:07;99974.75;;;26.47;21.77
82807;BME280;72563;44.816;20.484;2024-03-23T10:40:37;99941.75;;;27.15;21.14
82807;BME280;72563;44.816;20.484;2024-03-23T10:43:03;99956.09;;;27.72;21.25
82807;BME280;72563;44.816;20.484;2024-03-23T10:45:30;99936.56;;;27.78;21.31
82807;BME280;72563;44.816;20.484;2024-03-23T10:47:56;99925.09;;;27.69;20.28
82807;BME280;72563;44.816;20.484;2024-03-23T10:50:22;99931.13;;;27.55;19.93
82807;BME280;72563;44.816;20.484;2024-03-23T10:52:48;99919.59;;;27.62;20.50
82807;BME280;72563;44.816;20.484;2024-03-23T10:55:17;99930.94;;;28.07;21.10
82807;BME280;72563;44.816;20.484;2024-03-23T10:57:48;99922.59;;;28.44;21.00
82807;BME280;72563;44.816;20.484;2024-03-23T11:00:15;99919.59;;;28.35;19.82
82807;BME280;72563;44.816;20.484;2024-03-23T11:02:41;99899.59;;;28.55;19.94
82807;BME280;72563;44.816;20.484;2024-03-23T11:05:39;99907.41;;;28.51;20.12
82807;BME280;72563;44.816;20.484;2024-03-23T11:08:29;99902.59;;;28.23;19.27
82807;BME280;72563;44.816;20.484;2024-03-23T11:11:17;99902.19;;;28.08;19.74
82807;BME280;72563;44.816;20.484;2024-03-23T11:13:47;99892.03;;;27.95;19.69
82807;BME280;72563;44.816;20.484;2024-03-23T11:16:25;99897.47;;;27.89;20.08
82807;BME280;72563;44.816;20.484;2024-03-23T11:19:35;99875.31;;;27.71;20.01
82807;BME280;72563;44.816;20.484;2024-03-23T11:22:05;99887.47;;;27.84;20.00
82807;BME280;72563;44.816;20.484;2024-03-23T11:24:31;99872.78;;;27.61;19.08
82807;BME280;72563;44.816;20.484;2024-03-23T11:26:57;99855.81;;;27.29;18.90
82807;BME280;72563;44.816;20.484;2024-03-23T11:29:29;99842.50;;;26.81;20.89
82807;BME280;72563;44.816;20.484;2024-03-23T11:31:55;99843.91;;;26.89;20.51
82807;BME280;72563;44.816;20.484;2024-03-23T11:34:21;99851.06;;;27.42;19.69
82807;BME280;72563;44.816;20.484;2024-03-23T11:36:47;99849.91;;;27.23;19.34
82807;BME280;72563;44.816;20.484;2024-03-23T11:39:18;99831.53;;;27.31;19.63
82807;BME280;72563;44.816;20.484;2024-03-23T11:41:48;99835.78;;;26.91;18.97
82807;BME280;72563;44.816;20.484;2024-03-23T11:44:21;99829.06;;;27.49;19.44
82807;BME280;72563;44.816;20.484;2024-03-23T11:46:50;99827.72;;;27.54;19.64
82807;BME280;72563;44.816;20.484;2024-03-23T11:49:28;99813.97;;;27.24;19.51
82807;BME280;72563;44.816;20.484;2024-03-23T11:51:55;99815.03;;;27.30;18.91
82807;BME280;72563;44.816;20.484;2024-03-23T11:54:22;99802.22;;;27.25;21.31
82807;BME280;72563;44.816;20.484;2024-03-23T12:01:58;99791.25;;;27.27;19.43
82807;BME280;72563;44.816;20.484;2024-03-23T12:04:28;99782.44;;;27.25;20.47
82807;BME280;72563;44.816;20.484;2024-03-23T12:07:15;99772.50;;;27.49;19.38
82807;BME280;72563;44.816;20.484;2024-03-23T12:09:44;99748.06;;;27.27;19.54
82807;BME280;72563;44.816;20.484;2024-03-23T12:12:14;99772.97;;;27.32;20.06
82807;BME280;72563;44.816;20.484;2024-03-23T12:14:45;99766.41;;;27.06;19.16
82807;BME280;72563;44.816;20.484;2024-03-23T12:17:26;99751.50;;;26.89;20.26
82807;BME280;72563;44.816;20.484;2024-03-23T12:19:52;99747.06;;;27.04;19.07
82807;BME280;72563;44.816;20.484;2024-03-23T12:22:21;99748.03;;;26.98;19.21
82807;BME280;72563;44.816;20.484;2024-03-23T12:24:48;99754.22;;;26.61;19.61
82807;BME280;72563;44.816;20.484;2024-03-23T12:27:13;99743.69;;;26.61;18.96
82807;BME280;72563;44.816;20.484;2024-03-23T12:29:40;99729.97;;;26.79;19.07
82807;BME280;72563;44.816;20.484;2024-03-23T12:32:07;99732.69;;;26.99;19.53
82807;BME280;72563;44.816;20.484;2024-03-23T12:34:33;99725.97;;;26.93;19.65
82807;BME280;72563;44.816;20.484;2024-03-23T12:36:58;99730.94;;;26.89;19.88
82807;BME280;72563;44.816;20.484;2024-03-23T12:39:24;99736.81;;;26.94;19.46
82807;BME280;72563;44.816;20.484;2024-03-23T12:41:50;99726.25;;;26.82;20.46
82807;BME280;72563;44.816;20.484;2024-03-23T12:44:17;99716.34;;;26.90;19.54
82807;BME280;72563;44.816;20.484;2024-03-23T12:46:44;99709.03;;;26.93;19.54
82807;BME280;72563;44.816;20.484;2024-03-23T12:49:10;99707.91;;;26.74;19.43
82807;BME280;72563;44.816;20.484;2024-03-23T12:51:36;99690.44;;;26.63;21.30
82807;BME280;72563;44.816;20.484;2024-03-23T12:54:02;99693.44;;;26.40;20.17
82807;BME280;72563;44.816;20.484;2024-03-23T12:56:28;99680.63;;;26.52;21.23
82807;BME280;72563;44.816;20.484;2024-03-23T12:58:55;99699.66;;;26.64;21.78
82807;BME280;72563;44.816;20.484;2024-03-23T13:01:26;99678.34;;;26.31;22.71
82807;BME280;72563;44.816;20.484;2024-03-23T13:03:52;99677.91;;;26.32;21.71
82807;BME280;72563;44.816;20.484;2024-03-23T13:06:18;99666.53;;;26.36;20.78
82807;BME280;72563;44.816;20.484;2024-03-23T13:08:46;99670.25;;;25.97;21.41
82807;BME280;72563;44.816;20.484;2024-03-23T13:11:12;99647.88;;;25.90;21.46
82807;BME280;72563;44.816;20.484;2024-03-23T13:13:39;99664.66;;;26.13;21.00
82807;BME280;72563;44.816;20.484;2024-03-23T13:16:05;99658.66;;;26.11;22.22
82807;BME280;72563;44.816;20.484;2024-03-23T13:18:31;99656.28;;;26.09;21.93
82807;BME280;72563;44.816;20.484;2024-03-23T13:20:58;99640.69;;;26.21;23.10
82807;BME280;72563;44.816;20.484;2024-03-23T13:23:24;99652.94;;;26.31;21.15
82807;BME280;72563;44.816;20.484;2024-03-23T13:25:56;99651.66;;;25.99;21.48
82807;BME280;72563;44.816;20.484;2024-03-23T13:28:22;99647.38;;;26.11;22.14
82807;BME280;72563;44.816;20.484;2024-03-23T13:30:51;99650.66;;;26.25;21.51
82807;BME280;72563;44.816;20.484;2024-03-23T13:33:17;99632.50;;;26.26;22.98
82807;BME280;72563;44.816;20.484;2024-03-23T13:35:52;99639.09;;;26.36;23.13
82807;BME280;72563;44.816;20.484;2024-03-23T13:38:18;99629.22;;;26.28;22.73
82807;BME280;72563;44.816;20.484;2024-03-23T13:40:57;99632.91;;;26.25;22.32
82807;BME280;72563;44.816;20.484;2024-03-23T13:43:24;99620.16;;;26.20;21.26
82807;BME280;72563;44.816;20.484;2024-03-23T13:46:12;99620.28;;;25.81;23.78
82807;BME280;72563;44.816;20.484;2024-03-23T13:48:37;99620.97;;;25.85;22.47